Time;durP1;ratioP1;P1;durP2;ratioP2;P2;SDS_P1;SDS_P2;PMS_P1;PMS_P2;Temp;Humidity;BMP_temperature;BMP_pressure;BME280_temperature;BME280_humidity;BME280_pressure;Samples;Min_cycle;Max_cycle;Signal;HPM_P1;HPM_P2
2022/04/20 00:01:19;;;;;;;0.30;0.30;;;;;;;;;;4954810;28;20027;-92
2022/04/20 00:03:45;;;;;;;0.73;0.73;;;;;;;;;;4957578;28;20041;-90
2022/04/20 00:06:11;;;;;;;0.97;0.53;;;;;;;;;;4946602;28;20131;-91
2022/04/20 00:08:37;;;;;;;0.57;0.57;;;;;;;;;;4951187;28;20154;-92
2022/04/20 00:11:03;;;;;;;1.03;0.40;;;;;;;;;;4950221;29;20031;-93
2022/04/20 00:13:29;;;;;;;0.20;0.20;;;;;;;;;;4952530;29;20027;-93
2022/04/20 00:15:55;;;;;;;3.53;2.33;;;;;;;;;;4943088;29;20031;-92
2022/04/20 00:18:21;;;;;;;0.20;0.20;;;;;;;;;;4952533;29;20078;-92
2022/04/20 00:20:47;;;;;;;0.60;0.60;;;;;;;;;;4943026;28;20101;-91
2022/04/20 00:23:13;;;;;;;0.20;0.20;;;;;;;;;;4953409;29;20015;-94
2022/04/20 00:25:39;;;;;;;0.20;0.20;;;;;;;;;;4954280;28;20059;-94
2022/04/20 00:28:05;;;;;;;0.10;0.10;;;;;;;;;;4954503;28;20996;-95
2022/04/20 00:30:31;;;;;;;0.20;0.20;;;;;;;;;;4956895;28;20114;-91
2022/04/20 00:32:59;;;;;;;0.10;0.10;;;;;;;;;;4948752;28;20031;-93
2022/04/20 00:35:25;;;;;;;0.20;0.20;;;;;;;;;;4938559;28;20102;-92
2022/04/20 00:37:51;;;;;;;0.17;0.17;;;;;;;;;;4951765;29;20727;-91
2022/04/20 00:40:18;;;;;;;0.07;0.03;;;;;;;;;;4952215;28;20039;-91
2022/04/20 00:42:44;;;;;;;0.55;0.55;;;;;;;;;;4935531;28;20516;-91
2022/04/20 00:45:11;;;;;;;0.20;0.20;;;;;;;;;;4949089;28;20043;-94
2022/04/20 00:47:37;;;;;;;;;;;;;;;;;;4965980;28;20118;-92
2022/04/20 00:50:04;;;;;;;0.05;0.05;;;;;;;;;;4953739;28;20414;-92
2022/04/20 00:52:30;;;;;;;0.10;0.10;;;;;;;;;;4952151;28;20487;-93
2022/04/20 00:54:56;;;;;;;0.87;0.87;;;;;;;;;;4947411;28;20040;-92
2022/04/20 00:57:22;;;;;;;0.40;0.40;;;;;;;;;;4954207;28;20154;-93
2022/04/20 00:59:49;;;;;;;0.57;0.27;;;;;;;;;;4951958;28;20138;-93
2022/04/20 01:02:15;;;;;;;0.28;0.28;;;;;;;;;;4951243;28;20076;-91
2022/04/20 01:04:41;;;;;;;0.10;0.10;;;;;;;;;;4950635;29;20053;-91
2022/04/20 01:07:11;;;;;;;0.45;0.45;;;;;;;;;;4948459;28;20039;-88
2022/04/20 01:09:37;;;;;;;0.40;0.40;;;;;;;;;;4946888;28;20063;-90
2022/04/20 01:12:03;;;;;;;0.20;0.20;;;;;;;;;;4941411;28;20107;-91
2022/04/20 01:14:29;;;;;;;0.10;0.10;;;;;;;;;;4942103;29;20093;-92
2022/04/20 01:16:55;;;;;;;0.40;0.40;;;;;;;;;;4946211;29;20291;-91
2022/04/20 01:19:21;;;;;;;0.40;0.40;;;;;;;;;;4946104;29;20052;-90
2022/04/20 01:21:47;;;;;;;0.30;0.30;;;;;;;;;;4955606;28;20034;-91
2022/04/20 01:24:13;;;;;;;0.43;0.10;;;;;;;;;;4946133;28;20282;-92
2022/04/20 01:26:40;;;;;;;0.40;0.40;;;;;;;;;;4950467;28;20054;-93
2022/04/20 01:29:07;;;;;;;0.52;0.52;;;;;;;;;;4944970;28;20039;-95
2022/04/20 01:31:33;;;;;;;;;;;;;;;;;;4967487;28;20027;-93
2022/04/20 01:33:59;;;;;;;0.15;0.15;;;;;;;;;;4959906;28;19914;-93
2022/04/20 01:36:25;;;;;;;0.63;0.60;;;;;;;;;;4950611;28;20102;-93
2022/04/20 01:38:51;;;;;;;0.20;0.20;;;;;;;;;;4953340;28;20294;-93
2022/04/20 01:41:17;;;;;;;5.10;0.52;;;;;;;;;;4950010;28;20035;-92
2022/04/20 01:43:43;;;;;;;0.30;0.30;;;;;;;;;;4949731;28;20027;-92
2022/04/20 01:46:09;;;;;;;0.60;0.60;;;;;;;;;;4951869;28;20039;-96
2022/04/20 01:48:35;;;;;;;0.20;0.20;;;;;;;;;;4959411;28;20023;-95
2022/04/20 01:53:45;;;;;;;0.13;0.13;;;;;;;;;;4950214;28;20192;-95
2022/04/20 01:56:11;;;;;;;3.53;0.65;;;;;;;;;;4961825;28;20121;-93
2022/04/20 01:58:37;;;;;;;0.20;0.20;;;;;;;;;;4951231;28;20632;-94
2022/04/20 02:02:34;;;;;;;0.22;0.22;;;;;;;;;;4962895;28;20045;-94
2022/04/20 02:03:49;;;;;;;0.20;0.20;;;;;;;;;;4962180;28;20073;-94
2022/04/20 02:06:15;;;;;;;0.20;0.20;;;;;;;;;;4957525;28;20046;-94
2022/04/20 02:08:42;;;;;;;0.30;0.30;;;;;;;;;;4948657;28;20027;-93
2022/04/20 02:11:08;;;;;;;0.20;0.20;;;;;;;;;;4952372;28;20054;-94
2022/04/20 02:13:34;;;;;;;8.43;1.70;;;;;;;;;;4950106;28;20036;-95
2022/04/20 02:16:00;;;;;;;0.53;0.53;;;;;;;;;;4958588;28;20069;-93
2022/04/20 02:18:26;;;;;;;1.27;0.95;;;;;;;;;;4957780;28;20055;-90
2022/04/20 02:20:52;;;;;;;0.35;0.35;;;;;;;;;;4952665;28;20035;-89
2022/04/20 02:23:19;;;;;;;0.32;0.32;;;;;;;;;;4943438;28;20504;-90
2022/04/20 02:25:45;;;;;;;0.55;0.55;;;;;;;;;;4944353;28;20034;-90
2022/04/20 02:28:11;;;;;;;0.30;0.30;;;;;;;;;;4948676;28;20900;-90
2022/04/20 02:30:37;;;;;;;0.13;0.13;;;;;;;;;;4946404;28;20027;-89
2022/04/20 02:33:03;;;;;;;0.10;0.10;;;;;;;;;;4946538;28;20031;-89
2022/04/20 02:35:30;;;;;;;0.43;0.43;;;;;;;;;;4946574;28;20031;-91
2022/04/20 02:37:56;;;;;;;0.55;0.55;;;;;;;;;;4953869;28;20027;-90
2022/04/20 02:40:22;;;;;;;0.23;0.23;;;;;;;;;;4946840;28;20444;-90
2022/04/20 02:42:48;;;;;;;0.10;0.10;;;;;;;;;;4947038;28;20038;-89
2022/04/20 02:45:16;;;;;;;0.20;0.20;;;;;;;;;;4945415;28;20532;-89
2022/04/20 02:47:42;;;;;;;0.57;0.57;;;;;;;;;;4949544;28;20077;-91
2022/04/20 02:50:08;;;;;;;0.35;0.35;;;;;;;;;;4956342;28;20053;-91
2022/04/20 02:52:34;;;;;;;0.30;0.30;;;;;;;;;;4946984;28;20036;-89
2022/04/20 02:55:00;;;;;;;0.08;0.08;;;;;;;;;;4952643;28;20151;-91
2022/04/20 02:57:27;;;;;;;0.57;0.40;;;;;;;;;;4945485;28;20056;-89
2022/04/20 02:59:53;;;;;;;0.50;0.50;;;;;;;;;;4946724;28;20113;-91
2022/04/20 03:02:19;;;;;;;0.20;0.20;;;;;;;;;;4934556;28;20307;-90
2022/04/20 03:04:45;;;;;;;0.20;0.20;;;;;;;;;;4945383;28;20464;-88
2022/04/20 03:07:11;;;;;;;0.20;0.20;;;;;;;;;;4942956;28;20278;-89
2022/04/20 03:09:37;;;;;;;0.32;0.32;;;;;;;;;;4952170;28;20531;-89
2022/04/20 03:12:03;;;;;;;0.40;0.40;;;;;;;;;;4952371;28;20031;-88
2022/04/20 03:14:29;;;;;;;0.13;0.13;;;;;;;;;;4949367;28;20031;-88
2022/04/20 03:16:55;;;;;;;0.17;0.17;;;;;;;;;;4942170;28;20036;-89
2022/04/20 03:19:21;;;;;;;0.25;0.25;;;;;;;;;;4962851;28;20094;-89
2022/04/20 03:21:47;;;;;;;0.57;0.57;;;;;;;;;;4945315;28;20125;-88
2022/04/20 03:24:13;;;;;;;0.10;0.10;;;;;;;;;;4951314;28;20834;-89
2022/04/20 03:26:39;;;;;;;0.43;0.43;;;;;;;;;;4953427;28;20031;-89
2022/04/20 03:29:06;;;;;;;0.93;0.90;;;;;;;;;;4948760;28;20125;-88
2022/04/20 03:31:34;;;;;;;0.67;0.67;;;;;;;;;;4952287;28;20445;-90
2022/04/20 03:34:00;;;;;;;0.82;0.80;;;;;;;;;;4951666;28;20290;-90
2022/04/20 03:36:26;;;;;;;0.10;0.10;;;;;;;;;;4950074;28;20051;-91
2022/04/20 03:38:53;;;;;;;0.25;0.25;;;;;;;;;;4951796;28;20026;-91
2022/04/20 03:41:19;;;;;;;0.35;0.35;;;;;;;;;;4947159;28;20072;-90
2022/04/20 03:43:45;;;;;;;0.27;0.27;;;;;;;;;;4963448;28;20031;-88
2022/04/20 03:46:11;;;;;;;0.20;0.20;;;;;;;;;;4949456;28;20401;-88
2022/04/20 03:48:37;;;;;;;0.68;0.68;;;;;;;;;;4945434;28;20043;-88
2022/04/20 03:51:04;;;;;;;0.30;0.30;;;;;;;;;;4946656;28;20039;-88
2022/04/20 03:53:30;;;;;;;0.20;0.20;;;;;;;;;;4948485;28;20027;-89
2022/04/20 03:55:56;;;;;;;0.40;0.40;;;;;;;;;;4942894;28;20346;-87
2022/04/20 03:58:22;;;;;;;0.10;0.10;;;;;;;;;;4949308;28;20050;-89
2022/04/20 04:00:48;;;;;;;0.30;0.30;;;;;;;;;;4948782;28;20591;-89
2022/04/20 04:03:14;;;;;;;0.15;0.15;;;;;;;;;;4946407;28;20038;-89
2022/04/20 04:05:40;;;;;;;0.57;0.47;;;;;;;;;;4946109;28;20035;-89
2022/04/20 04:08:07;;;;;;;0.30;0.30;;;;;;;;;;4947949;28;20122;-90
2022/04/20 04:10:33;;;;;;;35.13;1.15;;;;;;;;;;4950703;28;20067;-89
2022/04/20 04:12:59;;;;;;;1.33;0.60;;;;;;;;;;4948998;28;20066;-88
2022/04/20 04:15:25;;;;;;;0.40;0.40;;;;;;;;;;4945429;28;20044;-87
2022/04/20 04:17:54;;;;;;;3.33;0.53;;;;;;;;;;4946412;28;20118;-89
2022/04/20 04:20:23;;;;;;;0.40;0.40;;;;;;;;;;4944668;28;20042;-90
2022/04/20 04:22:50;;;;;;;1.02;0.80;;;;;;;;;;4945726;29;20058;-89
2022/04/20 04:25:16;;;;;;;0.20;0.20;;;;;;;;;;4951817;28;20046;-88
2022/04/20 04:27:43;;;;;;;0.10;0.10;;;;;;;;;;4949956;28;20295;-90
2022/04/20 04:30:09;;;;;;;0.20;0.20;;;;;;;;;;4948170;28;20032;-90
2022/04/20 04:32:35;;;;;;;1.13;0.95;;;;;;;;;;4945202;28;20753;-90
2022/04/20 04:35:01;;;;;;;0.35;0.35;;;;;;;;;;4946352;29;20054;-88
2022/04/20 04:37:27;;;;;;;5.97;2.45;;;;;;;;;;4958716;28;20436;-90
2022/04/20 04:39:53;;;;;;;0.30;0.30;;;;;;;;;;4951054;28;20034;-92
2022/04/20 04:42:19;;;;;;;0.13;0.13;;;;;;;;;;4948383;28;20039;-88
2022/04/20 04:44:45;;;;;;;0.10;0.10;;;;;;;;;;4944392;28;20411;-88
2022/04/20 04:49:57;;;;;;;0.10;0.10;;;;;;;;;;4940442;29;20567;-85
2022/04/20 04:52:23;;;;;;;1.30;0.60;;;;;;;;;;4945043;28;20094;-85
2022/04/20 04:54:49;;;;;;;1.27;0.73;;;;;;;;;;4944865;28;20975;-84
2022/04/20 04:57:15;;;;;;;0.30;0.30;;;;;;;;;;4948019;28;20837;-83
2022/04/20 04:59:42;;;;;;;0.23;0.23;;;;;;;;;;4942353;28;20122;-83
2022/04/20 05:02:08;;;;;;;1.20;0.60;;;;;;;;;;4941984;28;20031;-84
2022/04/20 05:04:35;;;;;;;0.30;0.30;;;;;;;;;;4944767;29;20862;-85
2022/04/20 05:07:01;;;;;;;0.52;0.52;;;;;;;;;;4947874;28;20067;-84
2022/04/20 05:09:28;;;;;;;0.40;0.40;;;;;;;;;;4949639;28;20047;-83
2022/04/20 05:11:54;;;;;;;0.95;0.95;;;;;;;;;;4952709;28;20031;-83
2022/04/20 05:14:20;;;;;;;0.30;0.30;;;;;;;;;;4933082;28;20035;-84
2022/04/20 05:16:46;;;;;;;2.42;1.23;;;;;;;;;;4947449;28;20552;-83
2022/04/20 05:19:13;;;;;;;0.20;0.20;;;;;;;;;;4948767;28;20047;-84
2022/04/20 05:21:39;;;;;;;0.10;0.10;;;;;;;;;;4949723;28;20054;-85
2022/04/20 05:24:05;;;;;;;0.20;0.20;;;;;;;;;;4943899;29;20027;-83
2022/04/20 05:26:31;;;;;;;0.20;0.20;;;;;;;;;;4945829;28;20039;-85
2022/04/20 05:28:57;;;;;;;0.10;0.10;;;;;;;;;;4943259;28;20031;-82
2022/04/20 05:31:23;;;;;;;0.20;0.20;;;;;;;;;;4946098;28;20035;-84
2022/04/20 05:33:49;;;;;;;0.43;0.43;;;;;;;;;;4946881;28;20043;-84
2022/04/20 05:36:18;;;;;;;0.83;0.73;;;;;;;;;;4947743;28;20059;-83
2022/04/20 05:41:41;;;;;;;0.30;0.30;;;;;;;;;;4945999;28;20054;-84
2022/04/20 05:44:08;;;;;;;0.57;0.50;;;;;;;;;;4935667;29;20058;-84
2022/04/20 05:46:34;;;;;;;0.10;0.10;;;;;;;;;;4942580;29;20123;-85
2022/04/20 05:49:01;;;;;;;0.68;0.68;;;;;;;;;;4955360;28;20433;-83
2022/04/20 05:51:27;;;;;;;;;;;;;;;;;;4938738;28;20035;-84
2022/04/20 05:53:53;;;;;;;0.40;0.40;;;;;;;;;;4927949;29;20434;-84
2022/04/20 05:56:19;;;;;;;0.32;0.32;;;;;;;;;;4927391;29;20147;-84
2022/04/20 05:58:47;;;;;;;0.25;0.25;;;;;;;;;;4942444;29;20094;-84
2022/04/20 06:01:14;;;;;;;0.20;0.20;;;;;;;;;;4940807;28;20062;-84
2022/04/20 06:03:40;;;;;;;0.10;0.10;;;;;;;;;;4940161;28;20485;-85
2022/04/20 06:06:06;;;;;;;0.10;0.10;;;;;;;;;;4937230;28;20035;-84
2022/04/20 06:08:32;;;;;;;0.40;0.40;;;;;;;;;;4940551;28;22268;-85
2022/04/20 06:10:58;;;;;;;0.28;0.28;;;;;;;;;;4941547;28;20038;-85
2022/04/20 06:13:25;;;;;;;0.30;0.30;;;;;;;;;;4944422;28;20115;-85
2022/04/20 06:15:54;;;;;;;0.40;0.40;;;;;;;;;;4941537;28;20386;-85
2022/04/20 06:18:20;;;;;;;0.85;0.75;;;;;;;;;;4949327;28;20585;-84
2022/04/20 06:20:46;;;;;;;0.50;0.45;;;;;;;;;;4942350;28;20031;-83
2022/04/20 06:23:12;;;;;;;0.30;0.30;;;;;;;;;;4939998;28;20039;-83
2022/04/20 06:25:38;;;;;;;3.83;1.33;;;;;;;;;;4941045;28;20667;-83
2022/04/20 06:28:05;;;;;;;0.30;0.30;;;;;;;;;;4944687;28;20374;-84
2022/04/20 06:30:31;;;;;;;0.15;0.15;;;;;;;;;;4939183;28;20901;-83
2022/04/20 06:32:57;;;;;;;0.20;0.20;;;;;;;;;;4943222;28;20037;-83
2022/04/20 06:35:23;;;;;;;0.40;0.40;;;;;;;;;;4944385;28;20854;-86
2022/04/20 06:37:50;;;;;;;0.10;0.10;;;;;;;;;;4945674;28;20045;-85
2022/04/20 06:40:16;;;;;;;0.30;0.30;;;;;;;;;;4948249;28;20031;-85
2022/04/20 06:42:42;;;;;;;0.53;0.53;;;;;;;;;;4946503;28;20039;-85
2022/04/20 06:45:08;;;;;;;0.10;0.10;;;;;;;;;;4946462;28;20059;-85
2022/04/20 06:47:35;;;;;;;0.38;0.38;;;;;;;;;;4945753;28;20039;-85
2022/04/20 06:50:02;;;;;;;0.35;0.35;;;;;;;;;;4927149;29;20130;-85
2022/04/20 07:00:42;;;;;;;0.40;0.40;;;;;;;;;;4950373;28;20067;-85
2022/04/20 07:03:08;;;;;;;1.75;0.35;;;;;;;;;;4949779;28;20027;-86
2022/04/20 07:05:35;;;;;;;1.70;0.90;;;;;;;;;;4949518;28;20031;-86
2022/04/20 07:08:01;;;;;;;0.22;0.22;;;;;;;;;;4931214;29;20094;-86
2022/04/20 07:10:27;;;;;;;2.07;1.03;;;;;;;;;;4948904;29;20051;-86
2022/04/20 07:12:54;;;;;;;1.25;1.08;;;;;;;;;;4945440;29;21206;-86
2022/04/20 07:15:20;;;;;;;1.17;1.17;;;;;;;;;;4945461;29;20043;-85
2022/04/20 07:17:46;;;;;;;0.20;0.20;;;;;;;;;;4944737;28;20035;-85
2022/04/20 07:20:17;;;;;;;0.85;0.80;;;;;;;;;;4943935;29;20170;-84
2022/04/20 07:22:44;;;;;;;1.85;0.85;;;;;;;;;;4946219;28;20094;-86
2022/04/20 07:25:10;;;;;;;0.57;0.57;;;;;;;;;;4940639;28;20031;-84
2022/04/20 07:27:36;;;;;;;0.55;0.55;;;;;;;;;;4943460;29;20031;-85
2022/04/20 07:30:02;;;;;;;1.15;0.93;;;;;;;;;;4943569;29;20038;-84
2022/04/20 07:32:28;;;;;;;0.27;0.27;;;;;;;;;;4943541;29;20035;-85
2022/04/20 07:34:54;;;;;;;0.55;0.55;;;;;;;;;;4944769;29;20039;-85
2022/04/20 07:37:20;;;;;;;0.30;0.30;;;;;;;;;;4945910;28;20059;-85
2022/04/20 07:39:47;;;;;;;0.73;0.73;;;;;;;;;;4943686;29;20039;-84
2022/04/20 07:42:13;;;;;;;0.32;0.32;;;;;;;;;;4943644;28;20070;-85
2022/04/20 07:44:39;;;;;;;0.30;0.30;;;;;;;;;;4945042;29;20411;-85
2022/04/20 07:47:05;;;;;;;0.20;0.20;;;;;;;;;;4943364;29;20035;-85
2022/04/20 07:52:19;;;;;;;0.30;0.30;;;;;;;;;;4944953;29;20075;-85
2022/04/20 07:54:46;;;;;;;1.15;1.08;;;;;;;;;;4945572;29;20035;-86
2022/04/20 07:57:15;;;;;;;0.15;0.15;;;;;;;;;;4943127;29;20039;-85
2022/04/20 07:59:41;;;;;;;1.45;0.80;;;;;;;;;;4943953;28;20102;-85
2022/04/20 08:02:08;;;;;;;0.35;0.35;;;;;;;;;;4937764;28;20059;-86
2022/04/20 08:04:34;;;;;;;0.20;0.20;;;;;;;;;;4947637;28;20054;-84
2022/04/20 08:07:00;;;;;;;0.20;0.20;;;;;;;;;;4947334;28;20067;-85
2022/04/20 08:09:26;;;;;;;0.40;0.40;;;;;;;;;;4952846;28;20030;-85
2022/04/20 08:11:52;;;;;;;0.50;0.50;;;;;;;;;;4955027;28;20105;-85
2022/04/20 08:14:18;;;;;;;1.00;0.87;;;;;;;;;;4945360;28;20110;-84
2022/04/20 08:16:44;;;;;;;0.47;0.47;;;;;;;;;;4946445;28;20055;-85
2022/04/20 08:19:11;;;;;;;0.30;0.30;;;;;;;;;;4933583;28;381841;-85
2022/04/20 08:21:37;;;;;;;0.20;0.20;;;;;;;;;;4945563;28;20031;-84
2022/04/20 08:24:03;;;;;;;0.30;0.30;;;;;;;;;;4943870;28;20042;-85
2022/04/20 08:26:30;;;;;;;0.28;0.20;;;;;;;;;;4947077;28;20565;-85
2022/04/20 08:28:56;;;;;;;0.65;0.55;;;;;;;;;;4946501;28;20035;-85
2022/04/20 08:31:22;;;;;;;0.23;0.23;;;;;;;;;;4947117;28;20039;-84
2022/04/20 08:33:48;;;;;;;7.80;1.40;;;;;;;;;;4941954;29;20496;-86
2022/04/20 08:36:16;;;;;;;0.90;0.83;;;;;;;;;;4943854;28;20084;-85
2022/04/20 08:38:44;;;;;;;0.40;0.40;;;;;;;;;;4944440;28;20541;-85
2022/04/20 08:41:11;;;;;;;0.40;0.40;;;;;;;;;;4943115;29;20694;-84
2022/04/20 08:43:41;;;;;;;1.15;0.80;;;;;;;;;;4948452;28;20049;-85
2022/04/20 08:46:09;;;;;;;0.52;0.52;;;;;;;;;;4944887;28;20137;-85
2022/04/20 08:48:35;;;;;;;0.55;0.55;;;;;;;;;;4946229;28;20026;-85
2022/04/20 08:51:03;;;;;;;0.47;0.43;;;;;;;;;;4939353;29;20137;-85
2022/04/20 08:53:30;;;;;;;0.52;0.52;;;;;;;;;;4939784;28;20275;-86
2022/04/20 08:58:43;;;;;;;3.75;0.60;;;;;;;;;;4946685;28;20186;-85
2022/04/20 09:01:12;;;;;;;0.28;0.28;;;;;;;;;;4948712;28;20122;-84
2022/04/20 09:03:39;;;;;;;0.30;0.30;;;;;;;;;;4944156;28;20493;-85
2022/04/20 09:06:05;;;;;;;0.10;0.10;;;;;;;;;;4946863;28;20512;-84
2022/04/20 09:08:33;;;;;;;0.35;0.35;;;;;;;;;;4944393;28;20034;-85
2022/04/20 09:11:00;;;;;;;0.43;0.43;;;;;;;;;;4941345;29;20032;-84
2022/04/20 09:13:25;;;;;;;;;;;;;;;;;;4945802;28;20042;-85
2022/04/20 09:15:54;;;;;;;0.30;0.30;;;;;;;;;;4931558;28;19955;-85
2022/04/20 09:18:23;;;;;;;0.98;0.80;;;;;;;;;;4934879;28;20053;-85
2022/04/20 09:20:50;;;;;;;0.20;0.20;;;;;;;;;;4936707;28;20429;-85
2022/04/20 09:23:16;;;;;;;0.93;0.90;;;;;;;;;;4930457;28;20027;-83
2022/04/20 09:25:47;;;;;;;0.30;0.30;;;;;;;;;;4931221;28;20043;-83
2022/04/20 09:28:13;;;;;;;2.58;1.25;;;;;;;;;;4934925;28;20776;-83
2022/04/20 09:30:40;;;;;;;0.10;0.10;;;;;;;;;;4934269;28;20094;-84
2022/04/20 09:33:07;;;;;;;0.40;0.40;;;;;;;;;;4934752;28;20504;-83
2022/04/20 09:35:50;;;;;;;0.38;0.38;;;;;;;;;;4942559;28;20042;-83
2022/04/20 09:38:21;;;;;;;0.80;0.38;;;;;;;;;;4931495;28;20031;-83
2022/04/20 09:40:48;;;;;;;0.10;0.10;;;;;;;;;;4931215;28;20922;-83
2022/04/20 09:43:15;;;;;;;;;;;;;;;;;;4932098;28;20670;-84
2022/04/20 09:45:41;;;;;;;0.20;0.20;;;;;;;;;;4931121;28;20295;-83
2022/04/20 09:51:11;;;;;;;0.20;0.20;;;;;;;;;;4934798;28;20074;-82
2022/04/20 09:53:37;;;;;;;0.10;0.10;;;;;;;;;;4929015;28;20031;-82
2022/04/20 09:56:20;;;;;;;0.35;0.35;;;;;;;;;;4930852;28;20764;-84
2022/04/20 09:58:47;;;;;;;1.25;0.30;;;;;;;;;;4934523;28;20036;-82
2022/04/20 10:01:32;;;;;;;0.95;0.70;;;;;;;;;;4940443;28;20031;-82
2022/04/20 10:03:58;;;;;;;0.40;0.40;;;;;;;;;;4933597;28;20043;-85
2022/04/20 10:06:24;;;;;;;0.10;0.10;;;;;;;;;;4940647;28;20039;-83
2022/04/20 10:08:51;;;;;;;0.10;0.10;;;;;;;;;;4931528;29;20568;-83
2022/04/20 10:11:17;;;;;;;0.25;0.20;;;;;;;;;;4930262;28;20388;-84
2022/04/20 10:13:43;;;;;;;0.20;0.20;;;;;;;;;;4938106;28;20027;-84
2022/04/20 10:16:12;;;;;;;0.15;0.15;;;;;;;;;;4936485;29;20073;-84
2022/04/20 10:18:40;;;;;;;0.17;0.17;;;;;;;;;;4936511;29;20039;-85
2022/04/20 10:21:11;;;;;;;0.32;0.28;;;;;;;;;;4942407;29;20039;-83
2022/04/20 10:23:40;;;;;;;0.30;0.30;;;;;;;;;;4943359;28;20500;-85
2022/04/20 10:26:10;;;;;;;0.30;0.30;;;;;;;;;;4943424;28;20024;-83
2022/04/20 10:28:49;;;;;;;0.05;0.05;;;;;;;;;;4944675;29;20074;-83
2022/04/20 10:31:15;;;;;;;0.20;0.13;;;;;;;;;;4935216;29;20046;-84
2022/04/20 10:33:42;;;;;;;0.08;0.08;;;;;;;;;;4930777;28;20034;-83
2022/04/20 10:36:11;;;;;;;0.15;0.15;;;;;;;;;;4928554;29;20049;-83
2022/04/20 10:38:37;;;;;;;0.10;0.10;;;;;;;;;;4930124;28;20655;-84
2022/04/20 10:41:06;;;;;;;0.00;0.00;;;;;;;;;;4932812;28;20417;-83
2022/04/20 10:43:34;;;;;;;0.45;0.45;;;;;;;;;;4929818;28;20275;-83
2022/04/20 10:46:05;;;;;;;0.30;0.30;;;;;;;;;;4931172;28;20583;-84
2022/04/20 10:48:51;;;;;;;0.28;0.28;;;;;;;;;;4933400;28;20031;-83
2022/04/20 10:51:24;;;;;;;0.38;0.38;;;;;;;;;;4939055;28;20047;-83
2022/04/20 10:53:53;;;;;;;0.50;0.50;;;;;;;;;;4941284;28;20598;-82
2022/04/20 10:56:21;;;;;;;0.60;0.50;;;;;;;;;;4941784;29;20039;-84
2022/04/20 10:58:51;;;;;;;0.30;0.30;;;;;;;;;;4938285;28;20026;-84
2022/04/20 11:01:17;;;;;;;0.40;0.40;;;;;;;;;;4941779;29;20044;-84
2022/04/20 11:03:56;;;;;;;0.63;0.40;;;;;;;;;;4941647;28;20408;-84
2022/04/20 11:06:26;;;;;;;3.83;0.30;;;;;;;;;;4936606;28;20545;-86
2022/04/20 11:08:52;;;;;;;0.10;0.10;;;;;;;;;;4939529;28;20035;-84
2022/04/20 11:19:52;;;;;;;0.35;0.30;;;;;;;;;;4937583;29;20102;-85
2022/04/20 11:22:18;;;;;;;3.20;1.35;;;;;;;;;;4935140;29;20043;-86
2022/04/20 11:24:44;;;;;;;0.10;0.10;;;;;;;;;;4935846;28;20046;-85
2022/04/20 11:27:11;;;;;;;0.25;0.25;;;;;;;;;;4937145;28;20696;-85
2022/04/20 11:29:38;;;;;;;1.75;0.77;;;;;;;;;;4936098;28;20023;-85
2022/04/20 11:32:07;;;;;;;2.03;1.00;;;;;;;;;;4948185;28;20150;-85
2022/04/20 11:34:34;;;;;;;0.10;0.10;;;;;;;;;;4940351;29;20026;-83
2022/04/20 11:37:04;;;;;;;;;;;;;;;;;;4940584;28;20047;-85
2022/04/20 11:39:30;;;;;;;0.10;0.10;;;;;;;;;;4941445;28;19986;-86
2022/04/20 11:41:57;;;;;;;0.38;0.30;;;;;;;;;;4942532;28;20027;-85
2022/04/20 11:44:23;;;;;;;;;;;;;;;;;;4942012;28;20556;-87
2022/04/20 11:46:50;;;;;;;0.63;0.63;;;;;;;;;;4945840;29;19918;-86
2022/04/20 11:49:16;;;;;;;;;;;;;;;;;;4944433;28;20034;-85
2022/04/20 11:51:58;;;;;;;0.35;0.35;;;;;;;;;;4930297;28;19914;-85
2022/04/20 11:54:25;;;;;;;0.13;0.13;;;;;;;;;;4932306;28;20512;-84
2022/04/20 11:56:50;;;;;;;;;;;;;;;;;;4933913;29;20035;-86
2022/04/20 11:59:27;;;;;;;0.30;0.17;;;;;;;;;;4936711;29;20369;-84
2022/04/20 12:01:54;;;;;;;0.10;0.10;;;;;;;;;;4932531;28;20043;-83
2022/04/20 12:04:22;;;;;;;0.28;0.28;;;;;;;;;;4932471;29;20035;-85
2022/04/20 12:06:52;;;;;;;0.00;0.00;;;;;;;;;;4934642;28;20042;-85
2022/04/20 12:09:22;;;;;;;0.15;0.15;;;;;;;;;;4937328;29;20027;-84
2022/04/20 12:11:51;;;;;;;0.00;0.00;;;;;;;;;;4932900;29;20030;-84
2022/04/20 12:14:17;;;;;;;0.38;0.38;;;;;;;;;;4938919;28;20023;-83
2022/04/20 12:16:44;;;;;;;0.23;0.23;;;;;;;;;;4937232;28;20508;-83
2022/04/20 12:19:11;;;;;;;0.50;0.50;;;;;;;;;;4943213;28;20055;-83
2022/04/20 12:21:47;;;;;;;0.08;0.08;;;;;;;;;;4938884;28;20194;-84
2022/04/20 12:24:25;;;;;;;0.00;0.00;;;;;;;;;;4941428;28;20035;-84
2022/04/20 12:26:52;;;;;;;0.10;0.10;;;;;;;;;;4938540;28;20036;-84
2022/04/20 12:29:19;;;;;;;;;;;;;;;;;;4934536;28;20555;-84
2022/04/20 12:31:46;;;;;;;0.10;0.10;;;;;;;;;;4937830;29;19914;-85
2022/04/20 12:34:15;;;;;;;0.20;0.20;;;;;;;;;;4937195;28;20035;-83
2022/04/20 12:37:03;;;;;;;0.40;0.40;;;;;;;;;;4938553;28;20119;-84
2022/04/20 12:39:38;;;;;;;0.10;0.10;;;;;;;;;;4942176;28;20039;-83
2022/04/20 12:42:07;;;;;;;0.17;0.17;;;;;;;;;;4943320;28;20031;-83
2022/04/20 12:44:37;;;;;;;1.67;0.55;;;;;;;;;;4942712;29;20415;-84
2022/04/20 12:47:12;;;;;;;0.05;0.05;;;;;;;;;;4943753;28;20510;-85
2022/04/20 12:49:38;;;;;;;0.00;0.00;;;;;;;;;;4926399;29;20067;-84
2022/04/20 12:52:14;;;;;;;0.25;0.25;;;;;;;;;;4942507;29;20428;-84
2022/04/20 12:54:41;;;;;;;0.13;0.13;;;;;;;;;;4943116;28;20027;-84
2022/04/20 13:03:06;;;;;;;0.30;0.30;;;;;;;;;;4942970;29;21032;-84
2022/04/20 13:05:33;;;;;;;0.10;0.10;;;;;;;;;;4942838;28;20032;-83
2022/04/20 13:07:59;;;;;;;0.00;0.00;;;;;;;;;;4944997;28;20031;-83
2022/04/20 13:10:25;;;;;;;0.20;0.20;;;;;;;;;;4944816;28;20035;-83
2022/04/20 13:12:53;;;;;;;0.10;0.10;;;;;;;;;;4940772;28;20761;-83
2022/04/20 13:15:19;;;;;;;0.10;0.10;;;;;;;;;;4939495;29;20882;-84
2022/04/20 13:17:46;;;;;;;0.20;0.20;;;;;;;;;;4940450;28;20047;-84
2022/04/20 13:20:12;;;;;;;0.20;0.20;;;;;;;;;;4946596;28;20031;-85
2022/04/20 13:22:38;;;;;;;0.28;0.28;;;;;;;;;;4944180;28;21027;-84
2022/04/20 13:27:55;;;;;;;0.65;0.38;;;;;;;;;;4945709;28;20061;-83
2022/04/20 13:30:27;;;;;;;0.30;0.30;;;;;;;;;;4945514;28;20054;-83
2022/04/20 13:32:55;;;;;;;0.30;0.30;;;;;;;;;;4947607;28;20412;-85
2022/04/20 13:35:21;;;;;;;0.10;0.10;;;;;;;;;;4941276;28;20033;-84
2022/04/20 13:37:47;;;;;;;0.32;0.32;;;;;;;;;;4941567;28;20038;-84
2022/04/20 13:40:13;;;;;;;0.15;0.15;;;;;;;;;;4944393;28;20572;-85
2022/04/20 13:42:40;;;;;;;0.17;0.10;;;;;;;;;;4944263;28;20027;-84
2022/04/20 13:45:06;;;;;;;0.20;0.20;;;;;;;;;;4937547;29;20039;-84
2022/04/20 13:47:33;;;;;;;0.00;0.00;;;;;;;;;;4937478;29;20035;-84
2022/04/20 13:50:00;;;;;;;0.30;0.30;;;;;;;;;;4939974;29;20118;-83
2022/04/20 13:52:26;;;;;;;0.20;0.20;;;;;;;;;;4939523;28;20042;-83
2022/04/20 13:54:56;;;;;;;0.15;0.15;;;;;;;;;;4941229;29;20031;-84
2022/04/20 13:57:22;;;;;;;0.00;0.00;;;;;;;;;;4946169;28;20027;-83
2022/04/20 13:59:49;;;;;;;0.13;0.13;;;;;;;;;;4946927;28;20030;-84
2022/04/20 14:02:15;;;;;;;1.27;0.88;;;;;;;;;;4941867;28;20035;-84
2022/04/20 14:04:41;;;;;;;0.10;0.10;;;;;;;;;;4952828;28;20431;-84
2022/04/20 14:07:07;;;;;;;0.20;0.20;;;;;;;;;;4946225;28;20039;-83
2022/04/20 14:09:33;;;;;;;0.10;0.10;;;;;;;;;;4944568;28;20039;-84
2022/04/20 14:12:00;;;;;;;0.10;0.10;;;;;;;;;;4938705;29;20030;-86
2022/04/20 14:14:26;;;;;;;0.10;0.10;;;;;;;;;;4937635;29;20049;-85
2022/04/20 14:16:54;;;;;;;0.15;0.15;;;;;;;;;;4942853;29;20587;-84
2022/04/20 14:19:21;;;;;;;0.10;0.10;;;;;;;;;;4946624;28;20106;-85
2022/04/20 14:21:47;;;;;;;0.10;0.10;;;;;;;;;;4945369;28;20054;-83
2022/04/20 14:24:13;;;;;;;0.15;0.15;;;;;;;;;;4948732;28;20058;-84
2022/04/20 14:32:15;;;;;;;0.28;0.28;;;;;;;;;;4936906;29;20515;-84
2022/04/20 14:34:44;;;;;;;0.20;0.20;;;;;;;;;;4943000;29;20063;-84
2022/04/20 14:37:11;;;;;;;0.05;0.05;;;;;;;;;;4947160;28;20504;-84
2022/04/20 14:39:38;;;;;;;0.10;0.10;;;;;;;;;;4940351;28;20062;-85
2022/04/20 14:42:05;;;;;;;0.10;0.10;;;;;;;;;;4944473;28;20145;-83
2022/04/20 14:44:31;;;;;;;;;;;;;;;;;;4940017;28;20035;-85
2022/04/20 14:46:57;;;;;;;0.17;0.17;;;;;;;;;;4941333;29;19925;-85
2022/04/20 14:49:24;;;;;;;0.10;0.10;;;;;;;;;;4937696;28;20091;-84
2022/04/20 14:51:50;;;;;;;0.00;0.00;;;;;;;;;;4949941;28;20031;-85
2022/04/20 14:54:16;;;;;;;0.05;0.05;;;;;;;;;;4934933;29;20035;-85
2022/04/20 14:56:42;;;;;;;0.00;0.00;;;;;;;;;;4931456;28;20074;-84
2022/04/20 14:59:08;;;;;;;0.43;0.30;;;;;;;;;;4936415;29;20038;-83
2022/04/20 15:01:38;;;;;;;0.10;0.10;;;;;;;;;;4958595;28;20046;-84
2022/04/20 15:04:04;;;;;;;0.43;0.25;;;;;;;;;;4948211;28;20359;-84
2022/04/20 15:06:31;;;;;;;0.10;0.10;;;;;;;;;;4940091;28;20090;-84
2022/04/20 15:08:57;;;;;;;0.17;0.17;;;;;;;;;;4940578;28;20152;-84
2022/04/20 15:11:23;;;;;;;0.20;0.20;;;;;;;;;;4938391;28;20083;-85
2022/04/20 15:13:50;;;;;;;0.10;0.10;;;;;;;;;;4942382;28;20138;-84
2022/04/20 15:16:16;;;;;;;0.08;0.08;;;;;;;;;;4950718;28;20105;-83
2022/04/20 15:18:43;;;;;;;0.13;0.13;;;;;;;;;;4948596;28;20047;-84
2022/04/20 15:21:10;;;;;;;0.10;0.10;;;;;;;;;;4947958;28;20035;-84
2022/04/20 15:23:37;;;;;;;0.80;0.35;;;;;;;;;;4948394;28;20058;-84
2022/04/20 15:26:03;;;;;;;0.30;0.30;;;;;;;;;;4945745;28;20042;-82
2022/04/20 15:28:30;;;;;;;0.52;0.52;;;;;;;;;;4941261;28;20563;-82
2022/04/20 15:30:57;;;;;;;0.20;0.20;;;;;;;;;;4939081;29;20378;-84
2022/04/20 15:33:23;;;;;;;0.20;0.20;;;;;;;;;;4942911;28;21099;-84